Main page
METAR-TAF:

METAR-TAF

Airports :

Aguenar – Hadj Bey Akhamok Airport

Tamanrasset, Algeria

latitude: 22-49N, longitude: 005-28E, elevation: 1377 m

Current weather observation

The report was made 27 minutes ago, at 19:00 UTC
Wind 10 kt from the West/Northwest
Temperature 32°C
Humidity 10%
Pressure 1021 hPa
Visibility 10 km or more
no clouds below 1500 m and no cumulonimbus

METAR: DAAT 161900Z 29010KT CAVOK 32/M04 Q1021

Time: 20:27 (19:27 UTC)

Forecast

The report was made 2 hours and 27 minutes ago, at 17:00 UTC
Forecast valid from 16 at 18 UTC to 17 at 18 UTC
Wind 9 kt from the Northwest
Visibility 10 km or more
no clouds below 1500 m and no cumulonimbus
Becoming
from 16 at 22 UTC to 16 at 24 UTC
Wind 12 kt from the East
Becoming
from 17 at 10 UTC to 17 at 12 UTC
Wind 10 kt from the Southwest
Becoming
from 17 at 15 UTC to 17 at 18 UTC
Wind 10 kt from the Northwest

TAF: DAAT 161700Z 1618/1718 32009KT CAVOK BECMG 1622/1624 10012KT BECMG 1710/1712 22010KT BECMG 1715/1718 32010KT

Weather observations and forecasts of more than 4000 airports (METAR and TAF reports).

The available stations are represented by yellow and red dots on the map.

Hover mouse over dot to see the name of the station.

Then click to see weather observations and forecasts.

To change the map : click on the green buttons with a black cross to zoom in, on the green button with a dash to zoom out, or on the green arrows for adjacent maps.


METAR-TAF: